Regina — 3EUK3 — position and weather

sailwx.info

Track history (hours):
 
Tides and Currents Weather Stations Pressure Air Temp Water Temp Dewpoint Dewpoint Depression Visibility Wind Speed Wind Dir Waves Ship Positions

Regina

Last reported at 2015-May-30 16:23 UTC. Time now 2015-Jul-04 03:22 UTC.
Position N 01°55' E 102°20'.
Warning: this ship's position is 34 days out of date.

Length 180 m; draft 7 m.

Type: Cargo ship. MMSI: 371937000.

Date/timePositionNaut miles runAvg speedWind from/ knotsBaromVisibWave heightAir tempDewpointWater temp
2015-May-30 16:23N 01°55' E 102°20'1314.2
2015-May-30 15:28N 01°49' E 102°32'1313.7
2015-May-30 14:30N 01°44' E 102°44'7712.4
2015-May-30 08:20N 01°14' E 103°54'7 8.3
2015-May-30 07:33N 01°17' E 103°59'0 0.1
2015-May-30 06:33N 01°18' E 103°59'0 0.0
2015-May-30 05:27N 01°18' E 103°59'0 0.0
2015-May-30 04:21N 01°18' E 103°59'0 0.0
2015-May-30 03:27N 01°18' E 103°59'0 0.0
2015-May-30 02:33N 01°18' E 103°59'0 0.0
2015-May-30 01:21N 01°17' E 103°59'0 0.0
2015-May-30 00:33N 01°17' E 103°59'0 0.0
2015-May-29 23:27N 01°17' E 103°59'0 0.0
2015-May-29 22:33N 01°17' E 103°59'0 0.2
2015-May-29 21:33N 01°17' E 103°60'3 2.3
2015-May-29 20:26N 01°16' E 104°02'  
2015-May-24 08:11N 22°48' E 119°40'710.8
2015-May-24 07:31N 22°54' E 119°45'49811.8
2015-May-22 13:16N 30°32' E 123°21'1112.9
2015-May-22 12:27N 30°43' E 123°22'1413.0
2015-May-22 11:23N 30°56' E 123°17'1712.8
2015-May-22 10:04N 31°12' E 123°22'813.1
2015-May-22 09:25N 31°21' E 123°20'1312.7
2015-May-22 08:24N 31°33' E 123°15'2111.0
2015-May-22 06:30N 31°54' E 123°17'1310.8
2015-May-22 05:19N 32°07' E 123°16'1211.0
2015-May-22 04:12N 32°19' E 123°15'2411.9
2015-May-22 02:10N 32°43' E 123°14'3812.8
2015-May-21 23:14N 33°19' E 122°60'  
Track history (hours):
 
Tides and Currents Weather Stations Pressure Air Temp Water Temp Dewpoint Dewpoint Depression Visibility Wind Speed Wind Dir Waves Ship Positions

Regina

Last reported at 2015-May-30 16:23 UTC. Time now 2015-Jul-04 03:22 UTC.
Position N 01°55' E 102°20'.
Warning: this ship's position is 34 days out of date.

Length 180 m; draft 7 m.

Type: Cargo ship. MMSI: 371937000.

Date/timePositionNaut miles runAvg speedWind from/ knotsBaromVisibWave heightAir tempDewpointWater temp
2015-May-30 16:23N 01°55' E 102°20'1314.2
2015-May-30 15:28N 01°49' E 102°32'1313.7
2015-May-30 14:30N 01°44' E 102°44'7712.4
2015-May-30 08:20N 01°14' E 103°54'7 8.3
2015-May-30 07:33N 01°17' E 103°59'0 0.1
2015-May-30 06:33N 01°18' E 103°59'0 0.0
2015-May-30 05:27N 01°18' E 103°59'0 0.0
2015-May-30 04:21N 01°18' E 103°59'0 0.0
2015-May-30 03:27N 01°18' E 103°59'0 0.0
2015-May-30 02:33N 01°18' E 103°59'0 0.0
2015-May-30 01:21N 01°17' E 103°59'0 0.0
2015-May-30 00:33N 01°17' E 103°59'0 0.0
2015-May-29 23:27N 01°17' E 103°59'0 0.0
2015-May-29 22:33N 01°17' E 103°59'0 0.2
2015-May-29 21:33N 01°17' E 103°60'3 2.3
2015-May-29 20:26N 01°16' E 104°02'  
2015-May-24 08:11N 22°48' E 119°40'710.8
2015-May-24 07:31N 22°54' E 119°45'49811.8
2015-May-22 13:16N 30°32' E 123°21'1112.9
2015-May-22 12:27N 30°43' E 123°22'1413.0
2015-May-22 11:23N 30°56' E 123°17'1712.8
2015-May-22 10:04N 31°12' E 123°22'813.1
2015-May-22 09:25N 31°21' E 123°20'1312.7
2015-May-22 08:24N 31°33' E 123°15'2111.0
2015-May-22 06:30N 31°54' E 123°17'1310.8
2015-May-22 05:19N 32°07' E 123°16'1211.0
2015-May-22 04:12N 32°19' E 123°15'2411.9
2015-May-22 02:10N 32°43' E 123°14'3812.8
2015-May-21 23:14N 33°19' E 122°60'  

Dump ship's entire track history